Time;durP1;ratioP1;P1;durP2;ratioP2;P2;SDS_P1;SDS_P2;PMS_P1;PMS_P2;Temp;Humidity;BMP_temperature;BMP_pressure;BME280_temperature;BME280_humidity;BME280_pressure;Samples;Min_cycle;Max_cycle;Signal;HPM_P1;HPM_P2
2022/10/04 00:01:58;;;;;;;3.65;1.50;;;19.70;96.60;;;;;;5075748;28;20370;-83
2022/10/04 00:04:46;;;;;;;2.47;1.40;;;19.90;96.70;;;;;;5074827;28;20386;-82
2022/10/04 00:07:13;;;;;;;3.72;1.27;;;20.20;96.60;;;;;;5074749;28;20846;-84
2022/10/04 00:09:51;;;;;;;2.88;1.20;;;20.60;95.30;;;;;;5074790;28;20378;-84
2022/10/04 00:12:29;;;;;;;2.15;1.20;;;21.10;93.60;;;;;;5074679;28;20428;-83
2022/10/04 00:15:01;;;;;;;1.77;1.20;;;20.90;91.60;;;;;;5074867;28;20366;-85
2022/10/04 00:17:34;;;;;;;2.90;1.30;;;20.80;90.40;;;;;;5074417;28;20370;-84
2022/10/04 00:20:04;;;;;;;2.30;1.20;;;20.70;92.00;;;;;;5074579;28;20857;-84
2022/10/04 00:22:34;;;;;;;3.50;1.55;;;20.90;91.20;;;;;;5074473;28;20493;-82
2022/10/04 00:25:08;;;;;;;4.30;1.50;;;21.20;90.10;;;;;;5074390;28;20862;-83
2022/10/04 00:27:37;;;;;;;2.58;1.40;;;21.30;87.80;;;;;;5074346;28;20672;-85
2022/10/04 00:30:04;;;;;;;4.78;1.70;;;21.30;89.60;;;;;;5074587;28;20405;-87
2022/10/04 00:32:40;;;;;;;5.03;2.13;;;21.40;87.90;;;;;;5074408;28;20437;-84
2022/10/04 00:35:27;;;;;;;4.70;2.15;;;21.60;87.50;;;;;;5073953;28;20386;-83
2022/10/04 00:37:57;;;;;;;5.43;1.80;;;21.90;86.00;;;;;;4992619;28;20381;-83
2022/10/04 00:40:29;;;;;;;7.00;2.05;;;21.70;84.60;;;;;;4992502;28;20392;-84
2022/10/04 00:43:01;;;;;;;4.97;1.77;;;21.50;85.10;;;;;;4993166;28;20905;-85
2022/10/04 00:45:35;;;;;;;2.60;1.60;;;21.50;85.80;;;;;;5003577;28;20435;-84
2022/10/04 00:48:20;;;;;;;4.13;1.70;;;21.50;89.20;;;;;;5012433;28;20379;-85
2022/10/04 00:51:14;;;;;;;4.47;1.70;;;21.60;89.40;;;;;;5012465;28;20423;-84
2022/10/04 00:53:47;;;;;;;4.68;2.05;;;21.70;85.40;;;;;;5012001;28;20375;-84
2022/10/04 00:56:25;;;;;;;3.45;1.80;;;21.60;86.70;;;;;;5012742;28;20379;-83
2022/10/04 00:58:56;;;;;;;2.90;1.77;;;21.50;85.10;;;;;;5012142;28;20399;-84
2022/10/04 01:01:27;;;;;;;5.57;1.83;;;21.60;84.60;;;;;;5012069;28;20383;-84
2022/10/04 01:03:57;;;;;;;7.68;2.65;;;21.90;87.00;;;;;;5012001;28;20458;-83
2022/10/04 01:06:25;;;;;;;6.82;2.85;;;22.10;84.80;;;;;;5011622;28;20454;-84
2022/10/04 01:09:07;;;;;;;5.70;2.80;;;22.30;79.10;;;;;;5011804;28;20495;-84
2022/10/04 01:11:40;;;;;;;5.05;2.70;;;22.30;80.10;;;;;;4996031;28;20430;-88
2022/10/04 01:14:31;;;;;;;4.82;2.60;;;22.40;80.20;;;;;;5021638;28;20381;-84
2022/10/04 01:16:58;;;;;;;6.53;2.35;;;22.70;79.80;;;;;;5073211;28;20830;-84
2022/10/04 01:19:30;;;;;;;4.07;1.83;;;23.20;75.60;;;;;;5073169;28;20386;-84
2022/10/04 01:22:29;;;;;;;4.32;1.90;;;23.50;74.10;;;;;;5073133;28;20388;-84
2022/10/04 01:24:57;;;;;;;3.15;1.80;;;23.70;73.00;;;;;;5072972;28;20457;-83
2022/10/04 01:27:43;;;;;;;2.20;1.40;;;24.10;67.40;;;;;;5072904;28;20405;-84
2022/10/04 01:30:16;;;;;;;1.75;1.00;;;24.40;69.40;;;;;;5073305;28;20374;-84
2022/10/04 01:32:43;;;;;;;2.00;1.20;;;24.80;66.80;;;;;;5078271;28;20366;-85
2022/10/04 01:35:13;;;;;;;3.25;1.10;;;25.30;64.50;;;;;;5073989;28;20540;-84
2022/10/04 01:37:40;;;;;;;3.47;0.98;;;25.60;63.70;;;;;;5073567;28;20401;-84
2022/10/04 01:40:09;;;;;;;3.35;1.10;;;25.60;61.90;;;;;;5073585;28;20378;-85
2022/10/04 01:42:47;;;;;;;2.22;0.95;;;25.80;63.10;;;;;;5072915;28;20451;-85
2022/10/04 01:45:22;;;;;;;1.90;0.80;;;26.50;60.30;;;;;;5072528;28;20393;-84
2022/10/04 01:48:03;;;;;;;2.08;0.82;;;27.10;58.00;;;;;;5055175;28;20431;-86
2022/10/04 01:50:44;;;;;;;1.92;0.88;;;27.60;55.90;;;;;;5073279;28;20367;-84
2022/10/04 01:53:30;;;;;;;2.90;0.82;;;27.80;56.80;;;;;;5072744;28;20367;-83
2022/10/04 01:56:19;;;;;;;2.17;0.80;;;28.50;54.70;;;;;;5072578;28;20366;-85
2022/10/04 01:58:50;;;;;;;5.78;1.10;;;28.70;54.70;;;;;;5073467;28;20911;-84
2022/10/04 02:01:27;;;;;;;2.05;0.73;;;29.30;52.00;;;;;;5073089;28;20454;-84
2022/10/04 02:04:07;;;;;;;1.23;0.70;;;29.70;49.70;;;;;;5072652;28;20873;-84
2022/10/04 02:06:41;;;;;;;0.88;0.80;;;29.60;49.90;;;;;;5072541;28;20362;-84
2022/10/04 02:09:20;;;;;;;1.20;0.60;;;29.80;47.10;;;;;;5072830;28;20432;-85
2022/10/04 02:11:52;;;;;;;1.15;0.70;;;29.50;46.20;;;;;;5072786;28;20453;-84
2022/10/04 02:14:25;;;;;;;2.25;0.80;;;29.00;47.80;;;;;;5072559;28;20362;-85
2022/10/04 02:16:52;;;;;;;1.70;0.77;;;28.30;48.80;;;;;;5072438;28;20405;-84
2022/10/04 02:19:35;;;;;;;2.42;0.70;;;27.70;50.70;;;;;;5072344;28;20374;-84
2022/10/04 02:22:04;;;;;;;1.10;0.70;;;27.50;51.70;;;;;;5072370;28;20394;-84
2022/10/04 02:24:41;;;;;;;1.25;0.70;;;27.50;51.20;;;;;;5072332;28;20382;-85
2022/10/04 02:27:08;;;;;;;2.15;0.88;;;27.40;51.80;;;;;;5054792;28;20897;-85
2022/10/04 02:29:36;;;;;;;1.40;0.60;;;27.40;50.60;;;;;;5072742;28;20423;-85
2022/10/04 02:34:53;;;;;;;2.50;0.80;;;27.90;48.60;;;;;;5082644;28;20393;-85
2022/10/04 02:37:23;;;;;;;2.72;0.60;;;27.30;50.10;;;;;;5085537;28;20410;-85
2022/10/04 02:40:24;;;;;;;1.13;0.70;;;27.20;50.10;;;;;;5085035;28;20865;-86
2022/10/04 02:43:22;;;;;;;2.00;0.70;;;27.70;50.30;;;;;;5021641;28;20485;-86
2022/10/04 02:45:57;;;;;;;1.40;0.90;;;28.40;47.50;;;;;;5019192;28;20391;-85
2022/10/04 02:48:32;;;;;;;0.85;0.70;;;28.50;47.40;;;;;;5029290;28;20372;-85
2022/10/04 02:51:33;;;;;;;1.60;0.70;;;28.10;47.50;;;;;;5031177;28;20370;-86
2022/10/04 02:54:32;;;;;;;1.90;0.70;;;27.90;48.10;;;;;;5031927;28;20492;-85
2022/10/04 02:57:00;;;;;;;2.17;0.80;;;28.00;48.30;;;;;;4974011;29;20380;-85
2022/10/04 02:59:29;;;;;;;1.65;0.70;;;27.90;47.20;;;;;;4974485;29;20372;-85
2022/10/04 03:02:01;;;;;;;1.73;0.80;;;27.60;48.90;;;;;;4965872;28;20376;-87
2022/10/04 03:04:32;;;;;;;3.08;0.70;;;27.80;49.80;;;;;;4957818;29;20453;-86
2022/10/04 03:07:04;;;;;;;1.70;0.65;;;28.00;48.10;;;;;;4957443;29;20376;-86
2022/10/04 03:09:31;;;;;;;2.20;0.60;;;28.40;47.50;;;;;;4957064;29;20894;-85
2022/10/04 03:11:59;;;;;;;1.50;0.73;;;28.90;46.30;;;;;;4956457;29;20467;-86
2022/10/04 03:14:28;;;;;;;2.90;0.65;;;29.10;45.70;;;;;;4956361;29;20466;-85
2022/10/04 03:16:59;;;;;;;2.47;0.80;;;28.90;44.30;;;;;;4956412;29;20380;-84
2022/10/04 03:19:29;;;;;;;1.60;0.70;;;27.70;45.70;;;;;;4979871;28;20384;-85
2022/10/04 03:22:06;;;;;;;1.35;0.68;;;27.10;47.10;;;;;;4994664;28;20472;-85
2022/10/04 03:24:49;;;;;;;2.03;0.73;;;27.00;46.50;;;;;;4994915;28;20397;-85
2022/10/04 03:27:37;;;;;;;1.88;0.80;;;26.90;47.50;;;;;;4994698;28;20380;-86
2022/10/04 03:30:04;;;;;;;2.90;0.85;;;27.00;48.50;;;;;;4995429;28;20451;-86
2022/10/04 03:32:32;;;;;;;2.22;0.90;;;27.40;49.10;;;;;;4997270;28;20387;-84
2022/10/04 03:35:06;;;;;;;2.47;0.75;;;27.70;48.30;;;;;;5078280;28;20858;-86
2022/10/04 03:37:37;;;;;;;1.90;0.70;;;27.80;45.60;;;;;;5082595;28;20445;-85
2022/10/04 03:40:08;;;;;;;4.10;0.70;;;28.00;47.00;;;;;;5080406;28;20396;-85
2022/10/04 03:42:37;;;;;;;1.80;0.60;;;28.20;46.20;;;;;;5075796;28;20394;-85
2022/10/04 03:45:11;;;;;;;2.20;0.60;;;28.40;46.00;;;;;;5075913;28;20479;-84
2022/10/04 03:47:42;;;;;;;2.53;1.30;;;28.40;46.20;;;;;;5075561;28;20395;-86
2022/10/04 03:50:40;;;;;;;2.80;0.60;;;28.70;44.40;;;;;;5075433;28;20359;-85
2022/10/04 03:53:24;;;;;;;1.50;0.90;;;28.70;44.90;;;;;;5074294;28;20382;-85
2022/10/04 03:55:51;;;;;;;1.95;0.95;;;28.70;45.10;;;;;;5075096;28;20905;-84
2022/10/04 03:58:19;;;;;;;2.43;0.80;;;28.50;46.20;;;;;;5056718;28;20889;-86
2022/10/04 04:01:20;;;;;;;1.38;0.70;;;28.30;46.10;;;;;;5075171;28;20367;-86
2022/10/04 04:03:54;;;;;;;1.00;0.60;;;28.40;44.50;;;;;;5074603;28;20397;-85
2022/10/04 04:06:22;;;;;;;5.53;0.80;;;28.80;43.90;;;;;;5074533;28;20366;-84
2022/10/04 04:08:54;;;;;;;1.98;0.70;;;29.20;44.30;;;;;;5074451;28;20469;-84
2022/10/04 04:11:27;;;;;;;2.40;0.77;;;29.90;42.90;;;;;;5074556;28;20779;-87
2022/10/04 04:14:16;;;;;;;1.90;0.70;;;30.40;43.10;;;;;;5073912;28;20425;-83
2022/10/04 04:16:43;;;;;;;1.80;0.70;;;30.90;41.20;;;;;;5074426;28;20394;-83
2022/10/04 04:19:15;;;;;;;1.92;0.70;;;31.50;41.00;;;;;;5074478;28;20374;-83
2022/10/04 04:21:43;;;;;;;2.00;0.60;;;32.20;40.90;;;;;;5074779;28;20753;-85
2022/10/04 04:24:30;;;;;;;1.90;0.77;;;32.20;40.60;;;;;;5074215;28;20498;-84
2022/10/04 04:27:04;;;;;;;2.50;0.75;;;32.20;40.60;;;;;;5074007;28;20398;-84
2022/10/04 04:29:46;;;;;;;3.85;1.00;;;32.90;40.10;;;;;;5074057;28;20378;-82
2022/10/04 04:32:30;;;;;;;2.45;0.73;;;34.30;39.00;;;;;;5074779;28;20363;-83
2022/10/04 04:35:07;;;;;;;1.13;0.70;;;34.30;38.10;;;;;;5074235;28;20378;-84
2022/10/04 04:37:38;;;;;;;2.70;0.70;;;34.70;37.30;;;;;;5074043;28;20870;-82
2022/10/04 04:40:19;;;;;;;1.73;0.80;;;34.90;36.80;;;;;;5074609;28;20858;-84
2022/10/04 04:42:48;;;;;;;1.33;0.75;;;34.80;36.70;;;;;;5075894;28;20422;-82
2022/10/04 04:45:25;;;;;;;3.53;0.70;;;34.40;38.70;;;;;;5075332;28;20394;-83
2022/10/04 04:47:59;;;;;;;1.02;0.90;;;34.10;38.30;;;;;;5074644;28;20424;-83
2022/10/04 04:50:30;;;;;;;1.70;0.90;;;33.70;37.20;;;;;;5073951;28;20367;-84
2022/10/04 04:53:28;;;;;;;4.05;2.65;;;33.50;38.80;;;;;;5074283;28;20390;-85
2022/10/04 04:56:01;;;;;;;87.47;60.58;;;32.90;38.50;;;;;;4992312;28;20373;-83
2022/10/04 04:58:38;;;;;;;203.40;139.07;;;31.80;42.90;;;;;;4992480;28;20385;-83
2022/10/04 05:01:22;;;;;;;22.37;13.47;;;29.90;45.80;;;;;;4992122;28;20377;-84
2022/10/04 05:04:13;;;;;;;6.55;3.67;;;28.40;48.30;;;;;;4975550;28;20409;-83
2022/10/04 05:07:08;;;;;;;8.57;4.63;;;27.20;49.90;;;;;;4991789;28;20428;-82
2022/10/04 05:09:40;;;;;;;11.77;5.53;;;26.40;52.30;;;;;;4934027;29;20784;-83
2022/10/04 05:12:20;;;;;;;17.33;9.30;;;25.90;54.20;;;;;;4933992;29;20378;-84
2022/10/04 05:14:53;;;;;;;21.80;14.25;;;25.80;55.30;;;;;;4934510;29;20428;-82
2022/10/04 05:17:30;;;;;;;19.63;9.65;;;25.60;56.00;;;;;;4934020;29;20453;-83
2022/10/04 05:20:00;;;;;;;7.60;2.83;;;25.40;57.10;;;;;;4934041;29;20394;-82
2022/10/04 05:22:29;;;;;;;5.22;1.90;;;25.10;57.60;;;;;;4934098;29;20948;-83
2022/10/04 05:25:06;;;;;;;5.75;2.28;;;24.70;59.30;;;;;;4933770;29;20458;-82
2022/10/04 05:27:38;;;;;;;5.00;2.00;;;24.50;60.00;;;;;;4934038;29;20865;-82
2022/10/04 05:30:24;;;;;;;5.38;2.20;;;24.20;60.30;;;;;;4934511;29;20514;-82
2022/10/04 05:33:05;;;;;;;6.85;1.70;;;23.90;61.40;;;;;;4968418;28;20438;-82
2022/10/04 05:35:55;;;;;;;5.97;2.10;;;23.70;62.50;;;;;;4992143;28;20435;-83
2022/10/04 05:39:05;;;;;;;5.53;2.17;;;23.40;63.60;;;;;;4992262;28;20384;-86
2022/10/04 05:42:09;;;;;;;4.70;2.15;;;23.30;65.50;;;;;;4876959;29;20387;-83
2022/10/04 05:44:54;;;;;;;5.03;2.25;;;22.90;66.60;;;;;;4861368;29;20422;-88
2022/10/04 05:47:26;;;;;;;5.00;2.10;;;22.70;67.60;;;;;;4906736;29;20386;-85
2022/10/04 05:49:56;;;;;;;5.88;1.80;;;22.70;68.00;;;;;;4914483;29;20402;-85
2022/10/04 05:52:39;;;;;;;5.32;1.88;;;22.60;69.00;;;;;;4914570;29;20932;-87
2022/10/04 05:55:15;;;;;;;4.70;1.95;;;22.50;69.60;;;;;;4914618;29;20411;-86
2022/10/04 05:58:06;;;;;;;4.35;1.58;;;22.60;70.20;;;;;;4916461;29;20434;-85
2022/10/04 06:00:45;;;;;;;3.00;1.50;;;22.60;69.30;;;;;;4914649;29;20474;-84
2022/10/04 06:03:48;;;;;;;2.60;1.30;;;22.60;68.70;;;;;;4914411;29;20797;-85
2022/10/04 06:06:15;;;;;;;3.55;1.40;;;22.70;68.90;;;;;;4902449;29;20463;-88
2022/10/04 06:09:13;;;;;;;4.50;1.40;;;22.40;69.00;;;;;;4914165;29;20399;-87
2022/10/04 06:11:55;;;;;;;2.73;1.63;;;21.90;70.60;;;;;;4914207;29;20391;-82
2022/10/04 06:14:49;;;;;;;2.78;1.38;;;21.60;71.60;;;;;;4914245;29;20387;-83
2022/10/04 06:17:25;;;;;;;3.35;1.30;;;21.30;72.20;;;;;;4919126;29;20386;-84
2022/10/04 06:20:10;;;;;;;4.07;1.30;;;21.10;73.20;;;;;;5072659;28;20398;-85
2022/10/04 06:23:00;;;;;;;3.53;1.40;;;20.80;74.30;;;;;;5072921;28;20386;-84
2022/10/04 06:25:42;;;;;;;2.95;1.30;;;20.50;76.10;;;;;;5072582;28;20378;-83
2022/10/04 06:28:15;;;;;;;3.85;1.40;;;20.40;77.70;;;;;;5072152;28;20445;-85
2022/10/04 06:31:07;;;;;;;3.17;1.20;;;20.30;78.90;;;;;;5073675;28;20358;-84
2022/10/04 06:33:54;;;;;;;2.60;1.00;;;20.20;79.00;;;;;;5054238;28;20378;-85
2022/10/04 06:36:48;;;;;;;4.22;1.30;;;20.10;79.30;;;;;;5072019;28;20382;-83
2022/10/04 06:39:43;;;;;;;2.75;1.10;;;20.00;80.10;;;;;;5076760;28;20366;-84
2022/10/04 06:42:42;;;;;;;3.50;1.27;;;20.00;82.00;;;;;;5080817;28;20385;-86
2022/10/04 06:45:36;;;;;;;2.05;1.23;;;20.00;83.40;;;;;;5068445;28;20397;-84
2022/10/04 06:48:33;;;;;;;4.18;1.40;;;19.90;84.70;;;;;;5081588;28;20449;-84
2022/10/04 06:51:24;;;;;;;2.63;1.23;;;22.70;88.20;;;;;;5081748;28;20438;-84
2022/10/04 06:54:17;;;;;;;2.70;1.20;;;19.90;86.80;;;;;;5079665;28;20960;-84
2022/10/04 06:57:21;;;;;;;2.75;1.20;;;19.80;87.80;;;;;;5079149;28;20374;-85
2022/10/04 07:00:08;;;;;;;2.65;1.20;;;19.70;88.20;;;;;;5077676;28;20370;-85
2022/10/04 07:02:58;;;;;;;3.55;1.52;;;19.50;89.80;;;;;;5077628;28;20535;-80
2022/10/04 07:05:51;;;;;;;3.90;1.60;;;19.40;90.30;;;;;;5078332;28;20651;-79
2022/10/04 07:08:31;;;;;;;4.03;1.60;;;19.30;90.80;;;;;;5077726;28;20438;-81
2022/10/04 07:11:23;;;;;;;3.35;1.42;;;19.30;91.60;;;;;;5077042;28;20884;-81
2022/10/04 07:14:14;;;;;;;1.98;1.38;;;19.20;92.00;;;;;;5076441;28;20378;-81
2022/10/04 07:16:55;;;;;;;3.03;1.58;;;19.10;92.70;;;;;;5075814;28;20715;-79
2022/10/04 07:19:36;;;;;;;3.30;1.38;;;19.10;92.90;;;;;;5076290;28;20362;-80
2022/10/04 07:22:06;;;;;;;5.33;1.50;;;19.00;93.10;;;;;;5076759;28;20414;-77
2022/10/04 07:24:56;;;;;;;3.20;1.40;;;18.90;93.70;;;;;;5076364;28;20393;-80
2022/10/04 07:27:29;;;;;;;2.97;1.40;;;18.80;94.40;;;;;;5075194;28;20741;-81
2022/10/04 07:29:59;;;;;;;3.37;1.33;;;18.70;95.20;;;;;;5075826;28;20378;-81
2022/10/04 07:32:34;;;;;;;2.90;1.35;;;18.70;96.20;;;;;;5076526;28;20370;-80
2022/10/04 07:35:21;;;;;;;3.28;1.40;;;18.60;97.00;;;;;;5077053;28;20374;-81
2022/10/04 07:38:26;;;;;;;4.78;1.60;;;18.60;97.50;;;;;;5014764;28;20380;-80
2022/10/04 07:41:09;;;;;;;4.85;1.50;;;18.50;97.20;;;;;;4995840;28;20468;-81
2022/10/04 07:43:56;;;;;;;4.50;1.50;;;18.50;97.60;;;;;;4995733;28;20404;-83
2022/10/04 07:46:41;;;;;;;4.55;1.70;;;18.40;97.50;;;;;;4995765;28;20389;-85
2022/10/04 07:49:22;;;;;;;5.03;1.58;;;18.40;98.10;;;;;;4996238;28;20840;-82
2022/10/04 07:52:10;;;;;;;5.38;1.88;;;18.30;98.10;;;;;;4996980;28;20440;-80
2022/10/04 07:54:46;;;;;;;3.50;1.60;;;18.30;98.70;;;;;;4997243;28;20384;-80
2022/10/04 07:57:43;;;;;;;4.72;1.70;;;18.20;99.00;;;;;;4981315;28;20718;-82
2022/10/04 08:00:52;;;;;;;3.53;1.77;;;18.10;99.50;;;;;;4995287;28;20895;-80
2022/10/04 08:03:48;;;;;;;3.30;1.50;;;18.10;99.90;;;;;;4974475;28;20478;-81
2022/10/04 08:06:38;;;;;;;4.13;1.80;;;18.00;99.90;;;;;;4975622;28;20383;-81
2022/10/04 08:09:28;;;;;;;3.55;1.70;;;18.00;99.90;;;;;;4974893;28;20469;-80
2022/10/04 08:12:22;;;;;;;3.70;1.77;;;17.90;99.90;;;;;;4974709;28;20393;-81
2022/10/04 08:15:13;;;;;;;3.95;1.63;;;17.90;99.90;;;;;;4983289;28;20443;-80
2022/10/04 08:18:08;;;;;;;4.80;1.50;;;17.90;99.90;;;;;;4993426;28;20447;-81
2022/10/04 08:20:41;;;;;;;3.10;1.25;;;17.90;99.90;;;;;;4995322;28;20443;-82
2022/10/04 08:23:26;;;;;;;3.92;1.70;;;17.80;99.90;;;;;;4994821;28;20467;-81
2022/10/04 08:26:14;;;;;;;4.57;1.73;;;17.80;99.90;;;;;;4993496;28;20468;-79
2022/10/04 08:31:56;;;;;;;4.60;1.67;;;17.80;99.90;;;;;;4992986;28;20488;-79
2022/10/04 08:35:00;;;;;;;3.55;1.70;;;17.80;99.90;;;;;;4992973;28;20883;-80
2022/10/04 08:37:33;;;;;;;4.03;1.67;;;17.80;99.90;;;;;;4993238;28;20385;-82
2022/10/04 08:40:38;;;;;;;5.20;1.80;;;17.80;99.90;;;;;;5029968;28;20389;-81
2022/10/04 08:43:11;;;;;;;3.97;1.58;;;17.80;99.90;;;;;;5012994;28;20949;-80
2022/10/04 08:46:08;;;;;;;4.75;2.72;;;17.80;99.90;;;;;;5012452;28;20794;-82
2022/10/04 08:48:59;;;;;;;4.55;1.90;;;17.80;99.90;;;;;;5012766;28;20378;-81
2022/10/04 08:51:59;;;;;;;4.03;1.70;;;17.80;99.90;;;;;;5013316;28;20372;-80
2022/10/04 08:55:03;;;;;;;5.53;2.37;;;17.80;99.90;;;;;;5012849;28;20953;-81
2022/10/04 08:58:06;;;;;;;10.50;6.80;;;17.80;99.90;;;;;;5013515;28;20437;-83
2022/10/04 09:00:56;;;;;;;6.22;4.78;;;17.80;99.90;;;;;;5012525;28;20887;-82
2022/10/04 09:04:11;;;;;;;4.75;2.20;;;17.80;99.90;;;;;;4996794;28;20419;-81
2022/10/04 09:06:59;;;;;;;4.28;2.38;;;17.80;99.90;;;;;;5013165;28;20882;-81
2022/10/04 09:09:45;;;;;;;5.18;2.47;;;17.80;99.90;;;;;;4995785;28;20773;-81
2022/10/04 09:12:43;;;;;;;4.20;2.07;;;17.80;99.90;;;;;;5012470;28;20398;-82
2022/10/04 09:15:45;;;;;;;3.93;1.97;;;17.80;99.90;;;;;;5012125;28;20432;-82
2022/10/04 09:18:12;;;;;;;4.72;2.03;;;17.80;99.90;;;;;;5030298;28;20449;-81
2022/10/04 09:21:01;;;;;;;4.85;2.10;;;17.80;99.90;;;;;;5073548;28;21607;-80
2022/10/04 09:23:36;;;;;;;4.93;2.20;;;17.80;99.90;;;;;;5074220;28;20394;-81
2022/10/04 09:26:12;;;;;;;3.95;1.88;;;17.80;99.90;;;;;;5074013;28;20453;-81
2022/10/04 09:29:06;;;;;;;6.72;1.73;;;17.80;99.90;;;;;;5074900;28;20378;-80
2022/10/04 09:31:46;;;;;;;3.95;1.88;;;17.70;99.90;;;;;;5074367;28;20378;-80
2022/10/04 09:34:30;;;;;;;4.17;1.87;;;17.80;99.90;;;;;;5074258;28;20385;-81
2022/10/04 09:37:11;;;;;;;4.40;1.50;;;17.70;99.90;;;;;;5074335;28;20881;-81
2022/10/04 09:40:02;;;;;;;5.65;1.73;;;17.70;99.90;;;;;;5074309;28;20390;-82
2022/10/04 09:43:06;;;;;;;3.95;1.85;;;17.70;99.90;;;;;;5073125;28;20772;-81
2022/10/04 09:45:33;;;;;;;3.70;1.80;;;17.70;99.90;;;;;;5072766;28;20404;-81
2022/10/04 09:48:19;;;;;;;6.15;2.28;;;17.70;99.90;;;;;;5073317;28;20860;-81
2022/10/04 09:51:07;;;;;;;4.13;1.70;;;17.70;99.90;;;;;;5072661;28;20432;-81
2022/10/04 09:53:54;;;;;;;6.03;1.70;;;17.70;99.90;;;;;;5072535;28;20371;-82
2022/10/04 09:56:53;;;;;;;5.18;1.70;;;17.70;99.90;;;;;;5072378;28;20427;-80
2022/10/04 09:59:26;;;;;;;3.35;1.67;;;17.70;99.90;;;;;;5072442;28;20711;-81
2022/10/04 10:02:29;;;;;;;3.42;1.67;;;17.70;99.90;;;;;;5072301;28;20938;-81
2022/10/04 10:05:11;;;;;;;3.00;1.40;;;17.70;99.90;;;;;;5072326;28;20382;-81
2022/10/04 10:07:50;;;;;;;4.65;1.58;;;17.70;99.90;;;;;;5072430;28;20362;-80
2022/10/04 10:14:06;;;;;;;3.90;1.60;;;17.60;99.90;;;;;;5071944;28;20365;-81
2022/10/04 10:16:42;;;;;;;5.35;2.58;;;17.60;99.90;;;;;;5072477;28;20424;-82
2022/10/04 10:19:21;;;;;;;5.22;1.60;;;17.60;99.90;;;;;;5072878;28;20779;-81
2022/10/04 10:22:07;;;;;;;5.43;1.88;;;17.60;99.90;;;;;;5072539;28;20366;-80
2022/10/04 10:24:55;;;;;;;4.47;1.70;;;17.60;99.90;;;;;;5072005;28;20424;-80
2022/10/04 10:27:36;;;;;;;4.13;1.60;;;17.60;99.90;;;;;;5071973;28;20734;-80
2022/10/04 10:30:20;;;;;;;4.70;1.80;;;17.70;99.90;;;;;;5071964;28;20708;-81
2022/10/04 10:33:24;;;;;;;3.78;1.88;;;17.60;99.90;;;;;;5072341;28;20367;-81
2022/10/04 10:36:18;;;;;;;3.58;1.90;;;17.60;99.90;;;;;;5071995;28;20374;-82
2022/10/04 10:39:19;;;;;;;4.10;1.70;;;17.60;99.90;;;;;;5072264;28;20423;-80
2022/10/04 10:42:02;;;;;;;4.55;1.80;;;17.60;99.90;;;;;;5072078;28;20362;-80
2022/10/04 10:44:44;;;;;;;3.63;1.75;;;17.60;99.90;;;;;;5072427;28;20454;-81
2022/10/04 10:47:25;;;;;;;4.43;1.70;;;17.60;99.90;;;;;;5072156;28;20861;-81
2022/10/04 10:50:28;;;;;;;5.57;1.92;;;17.60;99.90;;;;;;5071922;28;20758;-81
2022/10/04 10:53:30;;;;;;;4.93;1.90;;;17.60;99.90;;;;;;5071878;28;20733;-80
2022/10/04 10:56:29;;;;;;;5.32;2.08;;;17.60;99.90;;;;;;5072168;28;20449;-80
2022/10/04 10:59:09;;;;;;;6.38;2.20;;;17.60;99.90;;;;;;5072070;28;20374;-80
2022/10/04 11:01:52;;;;;;;7.28;2.50;;;17.60;99.90;;;;;;5071892;28;20370;-79
2022/10/04 11:04:27;;;;;;;6.28;2.55;;;17.50;99.90;;;;;;5071963;28;20402;-81
2022/10/04 11:07:25;;;;;;;5.10;2.20;;;17.50;99.90;;;;;;5072729;28;20354;-79
2022/10/04 11:10:22;;;;;;;4.97;1.90;;;17.50;99.90;;;;;;5056442;28;20386;-80
2022/10/04 11:13:10;;;;;;;6.65;2.00;;;17.50;99.90;;;;;;5077014;28;20461;-79
2022/10/04 11:15:40;;;;;;;7.43;2.05;;;17.50;99.90;;;;;;5076940;28;20413;-80
2022/10/04 11:18:14;;;;;;;4.55;1.80;;;17.40;99.90;;;;;;5072297;28;20385;-81
2022/10/04 11:21:05;;;;;;;5.97;2.20;;;17.40;99.90;;;;;;5072235;28;20451;-80
2022/10/04 11:23:38;;;;;;;3.67;2.00;;;17.30;99.90;;;;;;5073356;28;20448;-80
2022/10/04 11:26:29;;;;;;;5.20;2.10;;;17.30;99.90;;;;;;5075544;28;20406;-80
2022/10/04 11:28:59;;;;;;;6.07;1.90;;;17.30;99.90;;;;;;5075612;28;20370;-81
2022/10/04 11:32:01;;;;;;;5.35;1.90;;;17.30;99.90;;;;;;5075129;28;20378;-80
2022/10/04 11:34:56;;;;;;;4.17;2.07;;;17.20;99.90;;;;;;4997166;28;20379;-80
2022/10/04 11:37:56;;;;;;;6.05;2.10;;;17.20;99.90;;;;;;4995515;28;20408;-80
2022/10/04 11:40:45;;;;;;;5.88;2.20;;;17.20;99.90;;;;;;4994638;28;20381;-81
2022/10/04 11:43:40;;;;;;;6.07;2.10;;;17.20;99.90;;;;;;4979185;28;20413;-80
2022/10/04 11:46:25;;;;;;;5.00;1.80;;;17.10;99.90;;;;;;5009802;28;20403;-81
2022/10/04 11:49:04;;;;;;;5.18;1.85;;;17.10;99.90;;;;;;5013711;28;20406;-81
2022/10/04 11:52:16;;;;;;;5.65;1.90;;;17.10;99.90;;;;;;5014028;28;20406;-79
2022/10/04 11:55:22;;;;;;;5.53;1.90;;;17.10;99.90;;;;;;5017466;28;20399;-81
2022/10/04 11:58:08;;;;;;;5.18;1.92;;;17.10;99.90;;;;;;5016598;28;20384;-78
2022/10/04 12:01:05;;;;;;;5.93;1.90;;;17.10;99.90;;;;;;5017130;28;20882;-79
2022/10/04 12:04:02;;;;;;;4.07;2.10;;;17.10;99.90;;;;;;5019193;28;20429;-80
2022/10/04 12:06:38;;;;;;;6.75;2.47;;;17.10;99.90;;;;;;5013232;28;20386;-80
2022/10/04 12:09:23;;;;;;;5.80;2.50;;;17.10;99.90;;;;;;5020587;28;20375;-80
2022/10/04 12:15:35;;;;;;;6.30;3.40;;;17.10;99.90;;;;;;5077392;28;20361;-80
2022/10/04 12:18:05;;;;;;;7.35;2.65;;;17.10;99.90;;;;;;5075323;28;20366;-80
2022/10/04 12:20:52;;;;;;;4.50;2.10;;;17.10;99.90;;;;;;5074763;28;20382;-81
2022/10/04 12:23:55;;;;;;;4.47;2.30;;;17.00;99.90;;;;;;5075044;28;20852;-80
2022/10/04 12:26:47;;;;;;;4.27;1.90;;;17.00;99.90;;;;;;5074784;28;20382;-80
2022/10/04 12:29:23;;;;;;;4.15;1.90;;;17.00;99.90;;;;;;5074529;28;20397;-81
2022/10/04 12:32:22;;;;;;;4.07;1.80;;;17.00;99.90;;;;;;5074628;28;20404;-82
2022/10/04 12:35:07;;;;;;;4.70;1.90;;;17.00;99.90;;;;;;5014245;28;20372;-81
2022/10/04 12:38:07;;;;;;;9.18;2.10;;;17.00;99.90;;;;;;5012918;28;20402;-80
2022/10/04 12:40:56;;;;;;;4.47;1.92;;;17.00;99.90;;;;;;5010138;28;20458;-80
2022/10/04 12:43:47;;;;;;;5.32;2.13;;;17.00;99.90;;;;;;4993269;28;20881;-81
2022/10/04 12:46:23;;;;;;;6.37;2.20;;;16.90;99.90;;;;;;4992687;28;20423;-80
2022/10/04 12:49:08;;;;;;;4.00;2.10;;;16.90;99.90;;;;;;4993574;28;20384;-80
2022/10/04 12:51:51;;;;;;;6.30;2.40;;;16.90;99.90;;;;;;4993535;28;20391;-80
2022/10/04 12:54:41;;;;;;;6.68;2.42;;;16.90;99.90;;;;;;4993597;28;20401;-81
2022/10/04 12:57:23;;;;;;;7.40;2.93;;;16.90;99.90;;;;;;4992356;28;20406;-81
2022/10/04 13:00:08;;;;;;;7.00;3.40;;;16.90;99.90;;;;;;4992796;28;20389;-81
2022/10/04 13:03:13;;;;;;;7.40;3.50;;;16.80;99.90;;;;;;4992229;28;20377;-81
2022/10/04 13:06:20;;;;;;;5.82;3.00;;;16.80;99.90;;;;;;4989974;28;20436;-80
2022/10/04 13:09:11;;;;;;;7.65;2.80;;;16.80;99.90;;;;;;4992336;28;20468;-81
2022/10/04 13:12:01;;;;;;;5.07;2.20;;;16.80;99.90;;;;;;5033626;28;20380;-80
2022/10/04 13:14:55;;;;;;;5.82;2.10;;;16.70;99.90;;;;;;5051000;28;20372;-81
2022/10/04 13:18:08;;;;;;;5.75;2.00;;;16.70;99.90;;;;;;5051238;28;20396;-80
2022/10/04 13:21:06;;;;;;;4.63;2.10;;;16.60;99.90;;;;;;4991945;28;20741;-81
2022/10/04 13:23:56;;;;;;;4.38;2.00;;;16.50;99.90;;;;;;4991863;28;20948;-80
2022/10/04 13:26:31;;;;;;;4.70;2.17;;;16.50;99.90;;;;;;4991845;28;20389;-81
2022/10/04 13:29:06;;;;;;;4.00;2.03;;;16.50;99.90;;;;;;4991886;28;20379;-82
2022/10/04 13:31:36;;;;;;;7.38;2.10;;;16.50;99.90;;;;;;4992378;28;20389;-80
2022/10/04 13:34:43;;;;;;;6.15;2.25;;;16.50;99.90;;;;;;4992212;28;20378;-81
2022/10/04 13:37:29;;;;;;;5.35;2.30;;;16.50;99.90;;;;;;4992328;28;20785;-80
2022/10/04 13:40:24;;;;;;;5.72;2.58;;;16.60;99.90;;;;;;4991649;28;20372;-81
2022/10/04 13:42:57;;;;;;;5.23;2.67;;;16.50;99.90;;;;;;4991853;28;20860;-80
2022/10/04 13:45:52;;;;;;;6.38;2.60;;;16.60;99.90;;;;;;4991530;28;20408;-80
2022/10/04 13:48:37;;;;;;;5.25;2.67;;;16.60;99.90;;;;;;4990635;28;20377;-81
2022/10/04 13:51:32;;;;;;;6.32;2.38;;;16.60;99.90;;;;;;4991439;28;20403;-81
2022/10/04 13:57:15;;;;;;;5.53;2.20;;;16.60;99.90;;;;;;5046587;28;20450;-81
2022/10/04 13:59:58;;;;;;;5.38;1.90;;;16.60;99.90;;;;;;5072788;28;20905;-80
2022/10/04 14:02:43;;;;;;;4.68;1.70;;;16.60;99.90;;;;;;5073063;28;20416;-79
2022/10/04 14:05:39;;;;;;;5.43;1.77;;;16.60;99.90;;;;;;5073104;28;20377;-80
2022/10/04 14:08:24;;;;;;;5.47;1.80;;;16.60;99.90;;;;;;5063330;28;20381;-82
2022/10/04 14:10:57;;;;;;;4.78;1.77;;;16.60;99.90;;;;;;5073295;28;20371;-79
2022/10/04 14:13:56;;;;;;;4.70;1.70;;;16.60;99.90;;;;;;5073304;28;20457;-81
2022/10/04 14:17:02;;;;;;;3.33;1.60;;;16.60;99.90;;;;;;5011093;28;20437;-81
2022/10/04 14:19:42;;;;;;;2.55;1.40;;;16.70;99.90;;;;;;5011457;28;20494;-82
2022/10/04 14:22:46;;;;;;;4.78;1.70;;;16.70;99.90;;;;;;5010686;28;20478;-81
2022/10/04 14:25:16;;;;;;;4.95;1.50;;;16.70;99.90;;;;;;4994488;28;20431;-81